sensor_id;sensor_type;location;lat;lon;timestamp;P1;durP1;ratioP1;P2;durP2;ratioP2
55915;SDS011;41826;53.246;-6.670;2023-02-28T00:01:29;12.07;;;4.18;;
55915;SDS011;41826;53.246;-6.670;2023-02-28T00:03:55;6.03;;;4.35;;
55915;SDS011;41826;53.246;-6.670;2023-02-28T00:06:20;4.85;;;3.00;;
55915;SDS011;41826;53.246;-6.670;2023-02-28T00:08:46;4.18;;;2.78;;
55915;SDS011;41826;53.246;-6.670;2023-02-28T00:11:12;7.07;;;3.53;;
55915;SDS011;41826;53.246;-6.670;2023-02-28T00:13:40;4.55;;;3.20;;
55915;SDS011;41826;53.246;-6.670;2023-02-28T00:16:08;3.28;;;2.70;;
55915;SDS011;41826;53.246;-6.670;2023-02-28T00:18:35;3.25;;;2.38;;
55915;SDS011;41826;53.246;-6.670;2023-02-28T00:21:01;9.73;;;3.80;;
55915;SDS011;41826;53.246;-6.670;2023-02-28T00:23:26;5.47;;;3.10;;
55915;SDS011;41826;53.246;-6.670;2023-02-28T00:25:52;3.20;;;2.63;;
55915;SDS011;41826;53.246;-6.670;2023-02-28T00:28:17;3.47;;;2.30;;
55915;SDS011;41826;53.246;-6.670;2023-02-28T00:30:43;2.45;;;2.20;;
55915;SDS011;41826;53.246;-6.670;2023-02-28T00:33:09;4.80;;;2.65;;
55915;SDS011;41826;53.246;-6.670;2023-02-28T00:35:34;4.78;;;2.38;;
55915;SDS011;41826;53.246;-6.670;2023-02-28T00:38:00;2.30;;;2.10;;
55915;SDS011;41826;53.246;-6.670;2023-02-28T00:40:25;4.30;;;2.75;;
55915;SDS011;41826;53.246;-6.670;2023-02-28T00:42:51;2.25;;;2.05;;
55915;SDS011;41826;53.246;-6.670;2023-02-28T00:45:16;2.85;;;2.20;;
55915;SDS011;41826;53.246;-6.670;2023-02-28T00:47:42;2.40;;;2.00;;
55915;SDS011;41826;53.246;-6.670;2023-02-28T00:50:07;4.65;;;2.50;;
55915;SDS011;41826;53.246;-6.670;2023-02-28T00:52:33;2.38;;;2.05;;
55915;SDS011;41826;53.246;-6.670;2023-02-28T00:54:59;3.28;;;2.15;;
55915;SDS011;41826;53.246;-6.670;2023-02-28T00:57:24;2.50;;;2.20;;
55915;SDS011;41826;53.246;-6.670;2023-02-28T00:59:49;3.47;;;2.13;;
55915;SDS011;41826;53.246;-6.670;2023-02-28T01:02:15;2.95;;;2.30;;
55915;SDS011;41826;53.246;-6.670;2023-02-28T01:04:41;3.13;;;2.03;;
55915;SDS011;41826;53.246;-6.670;2023-02-28T01:07:06;4.00;;;2.40;;
55915;SDS011;41826;53.246;-6.670;2023-02-28T01:09:32;4.72;;;2.47;;
55915;SDS011;41826;53.246;-6.670;2023-02-28T01:11:57;5.82;;;2.90;;
55915;SDS011;41826;53.246;-6.670;2023-02-28T01:14:22;3.38;;;2.17;;
55915;SDS011;41826;53.246;-6.670;2023-02-28T01:16:48;4.82;;;2.42;;
55915;SDS011;41826;53.246;-6.670;2023-02-28T01:19:13;2.95;;;2.45;;
55915;SDS011;41826;53.246;-6.670;2023-02-28T01:21:39;2.42;;;1.60;;
55915;SDS011;41826;53.246;-6.670;2023-02-28T01:24:05;3.00;;;1.77;;
55915;SDS011;41826;53.246;-6.670;2023-02-28T01:26:31;2.92;;;2.00;;
55915;SDS011;41826;53.246;-6.670;2023-02-28T01:28:57;3.08;;;1.80;;
55915;SDS011;41826;53.246;-6.670;2023-02-28T01:31:23;10.50;;;4.55;;
55915;SDS011;41826;53.246;-6.670;2023-02-28T01:33:49;4.97;;;3.30;;
55915;SDS011;41826;53.246;-6.670;2023-02-28T01:36:16;8.02;;;4.28;;
55915;SDS011;41826;53.246;-6.670;2023-02-28T01:38:43;5.78;;;2.85;;
55915;SDS011;41826;53.246;-6.670;2023-02-28T01:41:08;3.38;;;2.03;;
55915;SDS011;41826;53.246;-6.670;2023-02-28T01:46:09;5.00;;;2.78;;
55915;SDS011;41826;53.246;-6.670;2023-02-28T01:48:36;6.57;;;2.80;;
55915;SDS011;41826;53.246;-6.670;2023-02-28T01:51:11;5.35;;;2.92;;
55915;SDS011;41826;53.246;-6.670;2023-02-28T01:53:44;3.85;;;2.45;;
55915;SDS011;41826;53.246;-6.670;2023-02-28T01:56:17;2.33;;;1.85;;
55915;SDS011;41826;53.246;-6.670;2023-02-28T01:58:48;1.90;;;1.65;;
55915;SDS011;41826;53.246;-6.670;2023-02-28T02:01:18;2.95;;;2.15;;
55915;SDS011;41826;53.246;-6.670;2023-02-28T02:03:51;2.03;;;1.65;;
55915;SDS011;41826;53.246;-6.670;2023-02-28T02:06:20;5.13;;;2.90;;
55915;SDS011;41826;53.246;-6.670;2023-02-28T02:08:47;2.70;;;1.67;;
55915;SDS011;41826;53.246;-6.670;2023-02-28T02:11:12;2.10;;;1.90;;
55915;SDS011;41826;53.246;-6.670;2023-02-28T02:41:28;2.67;;;1.65;;
55915;SDS011;41826;53.246;-6.670;2023-02-28T02:43:41;3.78;;;2.67;;
55915;SDS011;41826;53.246;-6.670;2023-02-28T02:46:15;3.40;;;1.77;;
55915;SDS011;41826;53.246;-6.670;2023-02-28T02:48:56;2.38;;;1.30;;
55915;SDS011;41826;53.246;-6.670;2023-02-28T02:51:25;1.67;;;1.50;;
55915;SDS011;41826;53.246;-6.670;2023-02-28T02:53:57;2.58;;;2.00;;
55915;SDS011;41826;53.246;-6.670;2023-02-28T02:56:29;2.47;;;1.60;;
55915;SDS011;41826;53.246;-6.670;2023-02-28T02:59:00;2.58;;;1.35;;
55915;SDS011;41826;53.246;-6.670;2023-02-28T03:01:31;2.35;;;1.63;;
55915;SDS011;41826;53.246;-6.670;2023-02-28T03:04:10;3.17;;;1.60;;
55915;SDS011;41826;53.246;-6.670;2023-02-28T03:06:38;2.03;;;1.52;;
55915;SDS011;41826;53.246;-6.670;2023-02-28T03:09:03;3.65;;;1.38;;
55915;SDS011;41826;53.246;-6.670;2023-02-28T03:11:29;2.40;;;1.40;;
55915;SDS011;41826;53.246;-6.670;2023-02-28T03:33:20;3.15;;;1.90;;
55915;SDS011;41826;53.246;-6.670;2023-02-28T03:35:52;1.63;;;1.52;;
55915;SDS011;41826;53.246;-6.670;2023-02-28T03:38:24;3.67;;;1.50;;
55915;SDS011;41826;53.246;-6.670;2023-02-28T03:41:00;2.75;;;1.40;;
55915;SDS011;41826;53.246;-6.670;2023-02-28T03:43:32;1.75;;;1.63;;
55915;SDS011;41826;53.246;-6.670;2023-02-28T03:46:04;2.47;;;2.08;;
55915;SDS011;41826;53.246;-6.670;2023-02-28T03:48:39;3.45;;;1.77;;
55915;SDS011;41826;53.246;-6.670;2023-02-28T03:51:11;2.85;;;1.60;;
55915;SDS011;41826;53.246;-6.670;2023-02-28T03:53:42;2.58;;;1.45;;
55915;SDS011;41826;53.246;-6.670;2023-02-28T03:56:22;2.60;;;1.45;;
55915;SDS011;41826;53.246;-6.670;2023-02-28T03:58:59;1.80;;;1.30;;
55915;SDS011;41826;53.246;-6.670;2023-02-28T04:01:36;2.17;;;1.58;;
55915;SDS011;41826;53.246;-6.670;2023-02-28T04:04:06;4.47;;;2.83;;
55915;SDS011;41826;53.246;-6.670;2023-02-28T04:06:33;3.10;;;1.75;;
55915;SDS011;41826;53.246;-6.670;2023-02-28T04:08:59;2.85;;;1.73;;
55915;SDS011;41826;53.246;-6.670;2023-02-28T04:13:53;4.18;;;2.50;;
55915;SDS011;41826;53.246;-6.670;2023-02-28T04:16:19;1.73;;;1.45;;
55915;SDS011;41826;53.246;-6.670;2023-02-28T04:18:44;3.72;;;2.88;;
55915;SDS011;41826;53.246;-6.670;2023-02-28T04:21:10;6.57;;;4.13;;
55915;SDS011;41826;53.246;-6.670;2023-02-28T04:23:36;6.18;;;3.72;;
55915;SDS011;41826;53.246;-6.670;2023-02-28T04:26:02;5.05;;;3.60;;
55915;SDS011;41826;53.246;-6.670;2023-02-28T04:28:29;7.32;;;3.83;;
55915;SDS011;41826;53.246;-6.670;2023-02-28T04:30:58;6.32;;;3.20;;
55915;SDS011;41826;53.246;-6.670;2023-02-28T04:33:26;9.40;;;3.42;;
55915;SDS011;41826;53.246;-6.670;2023-02-28T04:35:58;6.47;;;3.72;;
55915;SDS011;41826;53.246;-6.670;2023-02-28T04:38:27;8.45;;;3.42;;
55915;SDS011;41826;53.246;-6.670;2023-02-28T04:40:56;6.63;;;2.85;;
55915;SDS011;41826;53.246;-6.670;2023-02-28T04:43:22;13.15;;;4.47;;
55915;SDS011;41826;53.246;-6.670;2023-02-28T04:45:47;6.07;;;3.08;;
55915;SDS011;41826;53.246;-6.670;2023-02-28T04:48:13;5.82;;;3.25;;
55915;SDS011;41826;53.246;-6.670;2023-02-28T04:50:38;6.13;;;3.38;;
55915;SDS011;41826;53.246;-6.670;2023-02-28T04:53:03;8.88;;;3.53;;
55915;SDS011;41826;53.246;-6.670;2023-02-28T04:55:29;5.97;;;3.90;;
55915;SDS011;41826;53.246;-6.670;2023-02-28T04:57:54;10.98;;;4.13;;
55915;SDS011;41826;53.246;-6.670;2023-02-28T05:00:20;8.23;;;3.63;;
55915;SDS011;41826;53.246;-6.670;2023-02-28T05:02:45;8.23;;;4.93;;
55915;SDS011;41826;53.246;-6.670;2023-02-28T05:05:11;6.80;;;4.00;;
55915;SDS011;41826;53.246;-6.670;2023-02-28T05:07:41;8.43;;;4.13;;
55915;SDS011;41826;53.246;-6.670;2023-02-28T05:10:07;6.53;;;3.65;;
55915;SDS011;41826;53.246;-6.670;2023-02-28T05:12:32;3.88;;;2.65;;
55915;SDS011;41826;53.246;-6.670;2023-02-28T05:14:58;7.05;;;3.85;;
55915;SDS011;41826;53.246;-6.670;2023-02-28T05:17:23;2.58;;;1.75;;
55915;SDS011;41826;53.246;-6.670;2023-02-28T05:19:48;4.63;;;2.80;;
55915;SDS011;41826;53.246;-6.670;2023-02-28T05:22:14;2.33;;;1.67;;
55915;SDS011;41826;53.246;-6.670;2023-02-28T05:24:43;3.30;;;2.47;;
55915;SDS011;41826;53.246;-6.670;2023-02-28T05:27:09;1.23;;;1.13;;
55915;SDS011;41826;53.246;-6.670;2023-02-28T05:29:34;1.42;;;1.02;;
55915;SDS011;41826;53.246;-6.670;2023-02-28T05:32:06;1.55;;;1.13;;
55915;SDS011;41826;53.246;-6.670;2023-02-28T05:34:33;2.80;;;1.83;;
55915;SDS011;41826;53.246;-6.670;2023-02-28T05:36:59;2.38;;;1.42;;
55915;SDS011;41826;53.246;-6.670;2023-02-28T05:39:24;6.13;;;2.33;;
55915;SDS011;41826;53.246;-6.670;2023-02-28T05:41:50;3.05;;;1.67;;
55915;SDS011;41826;53.246;-6.670;2023-02-28T05:44:15;3.13;;;1.92;;
55915;SDS011;41826;53.246;-6.670;2023-02-28T05:46:41;2.45;;;1.00;;
55915;SDS011;41826;53.246;-6.670;2023-02-28T05:49:06;6.53;;;3.10;;
55915;SDS011;41826;53.246;-6.670;2023-02-28T05:51:31;4.68;;;2.95;;
55915;SDS011;41826;53.246;-6.670;2023-02-28T05:54:00;3.00;;;1.60;;
55915;SDS011;41826;53.246;-6.670;2023-02-28T05:56:26;5.38;;;3.05;;
55915;SDS011;41826;53.246;-6.670;2023-02-28T05:58:52;7.38;;;3.22;;
55915;SDS011;41826;53.246;-6.670;2023-02-28T06:01:33;5.15;;;2.60;;
55915;SDS011;41826;53.246;-6.670;2023-02-28T06:04:02;3.75;;;2.22;;
55915;SDS011;41826;53.246;-6.670;2023-02-28T06:06:28;4.22;;;2.47;;
55915;SDS011;41826;53.246;-6.670;2023-02-28T06:08:54;9.02;;;4.00;;
55915;SDS011;41826;53.246;-6.670;2023-02-28T06:11:20;7.20;;;4.75;;
55915;SDS011;41826;53.246;-6.670;2023-02-28T06:13:46;7.57;;;4.53;;
55915;SDS011;41826;53.246;-6.670;2023-02-28T06:16:12;4.68;;;3.35;;
55915;SDS011;41826;53.246;-6.670;2023-02-28T06:18:37;5.88;;;2.78;;
55915;SDS011;41826;53.246;-6.670;2023-02-28T06:21:04;8.38;;;3.60;;
55915;SDS011;41826;53.246;-6.670;2023-02-28T06:23:29;1.55;;;1.45;;
55915;SDS011;41826;53.246;-6.670;2023-02-28T06:25:55;7.20;;;3.35;;
55915;SDS011;41826;53.246;-6.670;2023-02-28T06:28:23;7.10;;;4.00;;
55915;SDS011;41826;53.246;-6.670;2023-02-28T06:30:49;9.48;;;3.97;;
55915;SDS011;41826;53.246;-6.670;2023-02-28T06:33:15;5.20;;;3.85;;
55915;SDS011;41826;53.246;-6.670;2023-02-28T06:35:43;7.55;;;4.38;;
55915;SDS011;41826;53.246;-6.670;2023-02-28T06:38:09;8.48;;;4.20;;
55915;SDS011;41826;53.246;-6.670;2023-02-28T06:40:35;3.35;;;2.50;;
55915;SDS011;41826;53.246;-6.670;2023-02-28T06:43:01;6.03;;;3.42;;
55915;SDS011;41826;53.246;-6.670;2023-02-28T06:45:27;3.85;;;3.05;;
55915;SDS011;41826;53.246;-6.670;2023-02-28T06:47:52;6.88;;;3.72;;
55915;SDS011;41826;53.246;-6.670;2023-02-28T06:50:17;7.70;;;3.65;;
55915;SDS011;41826;53.246;-6.670;2023-02-28T06:52:44;7.57;;;3.83;;
55915;SDS011;41826;53.246;-6.670;2023-02-28T06:55:10;5.75;;;3.33;;
55915;SDS011;41826;53.246;-6.670;2023-02-28T06:57:35;6.57;;;3.78;;
55915;SDS011;41826;53.246;-6.670;2023-02-28T07:00:06;4.75;;;3.80;;
55915;SDS011;41826;53.246;-6.670;2023-02-28T07:02:33;6.68;;;3.80;;
55915;SDS011;41826;53.246;-6.670;2023-02-28T07:05:00;5.90;;;3.60;;
55915;SDS011;41826;53.246;-6.670;2023-02-28T07:07:25;6.45;;;3.55;;
55915;SDS011;41826;53.246;-6.670;2023-02-28T07:09:51;6.50;;;3.25;;
55915;SDS011;41826;53.246;-6.670;2023-02-28T07:12:16;6.90;;;3.22;;
55915;SDS011;41826;53.246;-6.670;2023-02-28T07:14:42;10.00;;;3.55;;
55915;SDS011;41826;53.246;-6.670;2023-02-28T07:17:08;6.57;;;4.03;;
55915;SDS011;41826;53.246;-6.670;2023-02-28T07:19:35;2.50;;;2.30;;
55915;SDS011;41826;53.246;-6.670;2023-02-28T07:22:01;6.97;;;2.85;;
55915;SDS011;41826;53.246;-6.670;2023-02-28T07:24:27;5.55;;;2.63;;
55915;SDS011;41826;53.246;-6.670;2023-02-28T07:26:54;5.10;;;2.40;;
55915;SDS011;41826;53.246;-6.670;2023-02-28T07:29:20;9.38;;;2.92;;
55915;SDS011;41826;53.246;-6.670;2023-02-28T07:31:46;9.88;;;2.72;;
55915;SDS011;41826;53.246;-6.670;2023-02-28T07:34:11;4.40;;;1.95;;
55915;SDS011;41826;53.246;-6.670;2023-02-28T07:36:37;4.60;;;2.38;;
55915;SDS011;41826;53.246;-6.670;2023-02-28T07:39:03;5.03;;;2.42;;
55915;SDS011;41826;53.246;-6.670;2023-02-28T07:41:29;7.30;;;2.20;;
55915;SDS011;41826;53.246;-6.670;2023-02-28T07:43:57;4.30;;;2.25;;
55915;SDS011;41826;53.246;-6.670;2023-02-28T07:46:24;7.00;;;1.80;;
55915;SDS011;41826;53.246;-6.670;2023-02-28T07:48:50;3.72;;;1.60;;
55915;SDS011;41826;53.246;-6.670;2023-02-28T07:51:17;3.85;;;2.55;;
55915;SDS011;41826;53.246;-6.670;2023-02-28T07:53:43;4.20;;;1.65;;
55915;SDS011;41826;53.246;-6.670;2023-02-28T07:56:09;1.42;;;1.30;;
55915;SDS011;41826;53.246;-6.670;2023-02-28T07:58:36;6.40;;;1.30;;
55915;SDS011;41826;53.246;-6.670;2023-02-28T08:01:08;1.95;;;1.25;;
55915;SDS011;41826;53.246;-6.670;2023-02-28T08:03:35;4.38;;;1.23;;
55915;SDS011;41826;53.246;-6.670;2023-02-28T08:06:03;2.72;;;1.73;;
55915;SDS011;41826;53.246;-6.670;2023-02-28T08:08:29;0.70;;;0.70;;
55915;SDS011;41826;53.246;-6.670;2023-02-28T08:10:57;2.20;;;1.02;;
55915;SDS011;41826;53.246;-6.670;2023-02-28T08:13:25;2.40;;;1.00;;
55915;SDS011;41826;53.246;-6.670;2023-02-28T08:15:52;1.33;;;1.23;;
55915;SDS011;41826;53.246;-6.670;2023-02-28T08:18:17;1.67;;;1.55;;
55915;SDS011;41826;53.246;-6.670;2023-02-28T08:20:43;1.30;;;1.17;;
55915;SDS011;41826;53.246;-6.670;2023-02-28T08:23:08;1.83;;;1.23;;
55915;SDS011;41826;53.246;-6.670;2023-02-28T08:25:34;2.42;;;1.60;;
55915;SDS011;41826;53.246;-6.670;2023-02-28T08:27:59;2.60;;;1.27;;
55915;SDS011;41826;53.246;-6.670;2023-02-28T08:30:24;1.98;;;1.08;;
55915;SDS011;41826;53.246;-6.670;2023-02-28T08:32:50;2.35;;;1.23;;
55915;SDS011;41826;53.246;-6.670;2023-02-28T08:35:15;4.68;;;1.58;;
55915;SDS011;41826;53.246;-6.670;2023-02-28T08:37:40;0.65;;;0.63;;
55915;SDS011;41826;53.246;-6.670;2023-02-28T08:40:06;4.38;;;1.90;;
55915;SDS011;41826;53.246;-6.670;2023-02-28T08:42:32;3.20;;;1.80;;
55915;SDS011;41826;53.246;-6.670;2023-02-28T08:44:57;4.65;;;1.75;;
55915;SDS011;41826;53.246;-6.670;2023-02-28T08:47:23;2.80;;;1.27;;
55915;SDS011;41826;53.246;-6.670;2023-02-28T08:49:48;2.55;;;1.30;;
55915;SDS011;41826;53.246;-6.670;2023-02-28T08:52:14;1.75;;;1.15;;
55915;SDS011;41826;53.246;-6.670;2023-02-28T08:54:39;5.97;;;1.30;;
55915;SDS011;41826;53.246;-6.670;2023-02-28T08:57:05;5.65;;;1.23;;
55915;SDS011;41826;53.246;-6.670;2023-02-28T08:59:30;0.95;;;0.80;;
55915;SDS011;41826;53.246;-6.670;2023-02-28T09:01:55;1.30;;;1.00;;
55915;SDS011;41826;53.246;-6.670;2023-02-28T09:04:21;7.43;;;1.30;;
55915;SDS011;41826;53.246;-6.670;2023-02-28T09:06:47;1.77;;;1.20;;
55915;SDS011;41826;53.246;-6.670;2023-02-28T09:09:13;4.68;;;1.02;;
55915;SDS011;41826;53.246;-6.670;2023-02-28T09:11:41;2.05;;;0.93;;
55915;SDS011;41826;53.246;-6.670;2023-02-28T09:14:07;1.02;;;0.98;;
55915;SDS011;41826;53.246;-6.670;2023-02-28T09:16:34;2.50;;;0.90;;
55915;SDS011;41826;53.246;-6.670;2023-02-28T09:18:59;5.05;;;1.08;;
55915;SDS011;41826;53.246;-6.670;2023-02-28T09:21:25;3.95;;;0.73;;
55915;SDS011;41826;53.246;-6.670;2023-02-28T09:23:51;1.05;;;1.00;;
55915;SDS011;41826;53.246;-6.670;2023-02-28T09:26:18;1.38;;;0.85;;
55915;SDS011;41826;53.246;-6.670;2023-02-28T09:28:48;1.15;;;0.70;;
55915;SDS011;41826;53.246;-6.670;2023-02-28T09:31:15;1.08;;;0.82;;
55915;SDS011;41826;53.246;-6.670;2023-02-28T09:33:45;4.30;;;1.15;;
55915;SDS011;41826;53.246;-6.670;2023-02-28T09:36:11;2.13;;;0.80;;
55915;SDS011;41826;53.246;-6.670;2023-02-28T09:38:37;1.38;;;0.90;;
55915;SDS011;41826;53.246;-6.670;2023-02-28T09:41:04;1.55;;;0.98;;
55915;SDS011;41826;53.246;-6.670;2023-02-28T09:43:38;1.23;;;0.88;;
55915;SDS011;41826;53.246;-6.670;2023-02-28T09:46:55;1.10;;;0.70;;
55915;SDS011;41826;53.246;-6.670;2023-02-28T09:49:11;1.52;;;0.82;;
55915;SDS011;41826;53.246;-6.670;2023-02-28T09:51:59;1.45;;;0.70;;
55915;SDS011;41826;53.246;-6.670;2023-02-28T09:54:33;1.98;;;1.02;;
55915;SDS011;41826;53.246;-6.670;2023-02-28T09:59:49;4.28;;;1.13;;
55915;SDS011;41826;53.246;-6.670;2023-02-28T10:08:14;6.07;;;1.20;;
55915;SDS011;41826;53.246;-6.670;2023-02-28T10:10:44;2.42;;;0.80;;
55915;SDS011;41826;53.246;-6.670;2023-02-28T10:13:13;1.35;;;0.80;;
55915;SDS011;41826;53.246;-6.670;2023-02-28T10:15:42;4.57;;;1.17;;
55915;SDS011;41826;53.246;-6.670;2023-02-28T10:18:12;2.35;;;1.08;;
55915;SDS011;41826;53.246;-6.670;2023-02-28T10:20:44;3.88;;;1.30;;
55915;SDS011;41826;53.246;-6.670;2023-02-28T10:23:19;1.77;;;1.13;;
55915;SDS011;41826;53.246;-6.670;2023-02-28T10:25:53;23.88;;;0.82;;
55915;SDS011;41826;53.246;-6.670;2023-02-28T10:28:21;2.17;;;0.95;;
55915;SDS011;41826;53.246;-6.670;2023-02-28T10:30:50;5.45;;;0.95;;
55915;SDS011;41826;53.246;-6.670;2023-02-28T10:33:22;1.60;;;1.30;;
55915;SDS011;41826;53.246;-6.670;2023-02-28T10:35:50;1.33;;;1.23;;
55915;SDS011;41826;53.246;-6.670;2023-02-28T10:38:38;2.33;;;1.20;;
55915;SDS011;41826;53.246;-6.670;2023-02-28T10:41:05;5.93;;;1.40;;
55915;SDS011;41826;53.246;-6.670;2023-02-28T10:43:30;7.35;;;0.90;;
55915;SDS011;41826;53.246;-6.670;2023-02-28T10:45:57;2.03;;;1.10;;
55915;SDS011;41826;53.246;-6.670;2023-02-28T10:49:03;4.57;;;1.08;;
55915;SDS011;41826;53.246;-6.670;2023-02-28T10:51:35;0.88;;;0.68;;
55915;SDS011;41826;53.246;-6.670;2023-02-28T10:54:03;1.38;;;0.88;;
55915;SDS011;41826;53.246;-6.670;2023-02-28T10:56:29;1.83;;;0.80;;
55915;SDS011;41826;53.246;-6.670;2023-02-28T11:01:38;3.65;;;1.17;;
55915;SDS011;41826;53.246;-6.670;2023-02-28T11:04:18;7.55;;;1.15;;
55915;SDS011;41826;53.246;-6.670;2023-02-28T11:07:22;0.52;;;0.50;;
55915;SDS011;41826;53.246;-6.670;2023-02-28T11:09:54;0.35;;;0.35;;
55915;SDS011;41826;53.246;-6.670;2023-02-28T11:15:05;0.50;;;0.50;;
55915;SDS011;41826;53.246;-6.670;2023-02-28T11:17:43;1.42;;;0.65;;
55915;SDS011;41826;53.246;-6.670;2023-02-28T11:20:18;0.52;;;0.50;;
55915;SDS011;41826;53.246;-6.670;2023-02-28T11:22:47;1.13;;;0.55;;
55915;SDS011;41826;53.246;-6.670;2023-02-28T11:25:25;2.35;;;0.55;;
55915;SDS011;41826;53.246;-6.670;2023-02-28T11:27:55;1.05;;;0.60;;
55915;SDS011;41826;53.246;-6.670;2023-02-28T11:30:30;0.50;;;0.50;;
55915;SDS011;41826;53.246;-6.670;2023-02-28T11:38:14;0.95;;;0.70;;
55915;SDS011;41826;53.246;-6.670;2023-02-28T11:40:45;0.63;;;0.60;;
55915;SDS011;41826;53.246;-6.670;2023-02-28T11:53:01;1.00;;;0.60;;
55915;SDS011;41826;53.246;-6.670;2023-02-28T11:58:27;0.40;;;0.40;;
55915;SDS011;41826;53.246;-6.670;2023-02-28T12:04:08;0.40;;;0.40;;
55915;SDS011;41826;53.246;-6.670;2023-02-28T12:06:47;1.65;;;0.88;;
55915;SDS011;41826;53.246;-6.670;2023-02-28T12:11:55;0.40;;;0.40;;
55915;SDS011;41826;53.246;-6.670;2023-02-28T12:20:08;0.40;;;0.40;;
55915;SDS011;41826;53.246;-6.670;2023-02-28T12:25:28;0.80;;;0.70;;
55915;SDS011;41826;53.246;-6.670;2023-02-28T12:28:03;0.70;;;0.68;;
55915;SDS011;41826;53.246;-6.670;2023-02-28T12:30:32;0.60;;;0.60;;
55915;SDS011;41826;53.246;-6.670;2023-02-28T12:33:03;1.13;;;0.52;;
55915;SDS011;41826;53.246;-6.670;2023-02-28T12:35:41;1.20;;;0.85;;
55915;SDS011;41826;53.246;-6.670;2023-02-28T12:43:16;1.07;;;0.60;;
55915;SDS011;41826;53.246;-6.670;2023-02-28T12:45:48;2.63;;;0.85;;
55915;SDS011;41826;53.246;-6.670;2023-02-28T12:48:22;1.33;;;0.50;;
55915;SDS011;41826;53.246;-6.670;2023-02-28T12:50:52;0.50;;;0.50;;
55915;SDS011;41826;53.246;-6.670;2023-02-28T12:53:32;1.85;;;0.40;;
55915;SDS011;41826;53.246;-6.670;2023-02-28T12:56:17;0.30;;;0.30;;
55915;SDS011;41826;53.246;-6.670;2023-02-28T13:09:34;3.17;;;0.70;;
55915;SDS011;41826;53.246;-6.670;2023-02-28T13:11:59;1.95;;;0.93;;
55915;SDS011;41826;53.246;-6.670;2023-02-28T13:14:28;1.17;;;0.90;;
55915;SDS011;41826;53.246;-6.670;2023-02-28T13:19:35;2.75;;;0.93;;
55915;SDS011;41826;53.246;-6.670;2023-02-28T13:22:04;0.45;;;0.43;;
55915;SDS011;41826;53.246;-6.670;2023-02-28T13:24:49;1.27;;;0.57;;
55915;SDS011;41826;53.246;-6.670;2023-02-28T13:27:32;0.50;;;0.50;;
55915;SDS011;41826;53.246;-6.670;2023-02-28T13:29:59;1.85;;;0.52;;
55915;SDS011;41826;53.246;-6.670;2023-02-28T13:32:31;1.30;;;0.73;;
55915;SDS011;41826;53.246;-6.670;2023-02-28T13:42:55;1.10;;;0.60;;
55915;SDS011;41826;53.246;-6.670;2023-02-28T13:50:34;0.57;;;0.50;;
55915;SDS011;41826;53.246;-6.670;2023-02-28T14:01:31;1.33;;;0.65;;
55915;SDS011;41826;53.246;-6.670;2023-02-28T14:07:02;2.83;;;0.52;;
55915;SDS011;41826;53.246;-6.670;2023-02-28T14:09:29;0.55;;;0.52;;
55915;SDS011;41826;53.246;-6.670;2023-02-28T14:15:04;2.53;;;1.17;;
55915;SDS011;41826;53.246;-6.670;2023-02-28T14:17:53;3.47;;;2.47;;
55915;SDS011;41826;53.246;-6.670;2023-02-28T14:20:20;1.70;;;0.60;;
55915;SDS011;41826;53.246;-6.670;2023-02-28T14:28:43;3.08;;;1.33;;
55915;SDS011;41826;53.246;-6.670;2023-02-28T14:31:15;4.32;;;1.45;;
55915;SDS011;41826;53.246;-6.670;2023-02-28T14:36:50;1.20;;;0.98;;
55915;SDS011;41826;53.246;-6.670;2023-02-28T14:39:24;2.13;;;1.25;;
55915;SDS011;41826;53.246;-6.670;2023-02-28T14:46:53;1.52;;;0.88;;
55915;SDS011;41826;53.246;-6.670;2023-02-28T14:49:21;2.75;;;0.73;;
55915;SDS011;41826;53.246;-6.670;2023-02-28T14:52:13;1.20;;;1.02;;
55915;SDS011;41826;53.246;-6.670;2023-02-28T14:54:42;4.80;;;0.90;;
55915;SDS011;41826;53.246;-6.670;2023-02-28T15:02:43;2.63;;;1.00;;
55915;SDS011;41826;53.246;-6.670;2023-02-28T15:07:37;2.17;;;0.80;;
55915;SDS011;41826;53.246;-6.670;2023-02-28T15:12:34;1.70;;;1.00;;
55915;SDS011;41826;53.246;-6.670;2023-02-28T15:15:00;2.97;;;0.95;;
55915;SDS011;41826;53.246;-6.670;2023-02-28T15:17:26;2.67;;;1.17;;
55915;SDS011;41826;53.246;-6.670;2023-02-28T15:19:52;2.70;;;2.05;;
55915;SDS011;41826;53.246;-6.670;2023-02-28T15:22:21;2.45;;;1.20;;
55915;SDS011;41826;53.246;-6.670;2023-02-28T15:24:56;2.75;;;1.30;;
55915;SDS011;41826;53.246;-6.670;2023-02-28T15:27:23;1.98;;;1.20;;
55915;SDS011;41826;53.246;-6.670;2023-02-28T15:29:56;3.67;;;1.40;;
55915;SDS011;41826;53.246;-6.670;2023-02-28T15:34:54;10.38;;;3.33;;
55915;SDS011;41826;53.246;-6.670;2023-02-28T15:39:52;7.05;;;1.00;;
55915;SDS011;41826;53.246;-6.670;2023-02-28T15:42:20;3.15;;;1.25;;
55915;SDS011;41826;53.246;-6.670;2023-02-28T15:44:48;2.55;;;1.30;;
55915;SDS011;41826;53.246;-6.670;2023-02-28T15:52:17;1.48;;;1.35;;
55915;SDS011;41826;53.246;-6.670;2023-02-28T15:54:45;19.20;;;6.63;;
55915;SDS011;41826;53.246;-6.670;2023-02-28T15:57:18;3.10;;;1.00;;
55915;SDS011;41826;53.246;-6.670;2023-02-28T15:59:52;2.80;;;1.20;;
55915;SDS011;41826;53.246;-6.670;2023-02-28T16:04:55;2.63;;;1.90;;
55915;SDS011;41826;53.246;-6.670;2023-02-28T16:07:23;6.43;;;2.03;;
55915;SDS011;41826;53.246;-6.670;2023-02-28T16:09:49;2.53;;;1.58;;
55915;SDS011;41826;53.246;-6.670;2023-02-28T16:12:15;8.23;;;2.67;;
55915;SDS011;41826;53.246;-6.670;2023-02-28T16:14:40;4.78;;;1.92;;
55915;SDS011;41826;53.246;-6.670;2023-02-28T16:17:20;4.47;;;2.10;;
55915;SDS011;41826;53.246;-6.670;2023-02-28T16:19:57;7.15;;;2.60;;
55915;SDS011;41826;53.246;-6.670;2023-02-28T16:22:23;2.45;;;2.10;;
55915;SDS011;41826;53.246;-6.670;2023-02-28T16:24:48;6.57;;;2.13;;
55915;SDS011;41826;53.246;-6.670;2023-02-28T16:27:16;7.13;;;2.03;;
55915;SDS011;41826;53.246;-6.670;2023-02-28T16:29:43;5.18;;;3.20;;
55915;SDS011;41826;53.246;-6.670;2023-02-28T16:32:10;4.10;;;2.05;;
55915;SDS011;41826;53.246;-6.670;2023-02-28T16:34:38;2.28;;;1.67;;
55915;SDS011;41826;53.246;-6.670;2023-02-28T16:37:04;1.73;;;1.60;;
55915;SDS011;41826;53.246;-6.670;2023-02-28T16:39:35;2.17;;;1.90;;
55915;SDS011;41826;53.246;-6.670;2023-02-28T16:42:01;4.82;;;2.20;;
55915;SDS011;41826;53.246;-6.670;2023-02-28T16:47:00;4.15;;;1.98;;
55915;SDS011;41826;53.246;-6.670;2023-02-28T16:49:27;2.88;;;1.95;;
55915;SDS011;41826;53.246;-6.670;2023-02-28T16:51:52;4.53;;;3.05;;
55915;SDS011;41826;53.246;-6.670;2023-02-28T16:54:18;6.80;;;3.95;;
55915;SDS011;41826;53.246;-6.670;2023-02-28T16:56:44;8.00;;;4.00;;
55915;SDS011;41826;53.246;-6.670;2023-02-28T16:59:12;9.40;;;4.10;;
55915;SDS011;41826;53.246;-6.670;2023-02-28T17:01:38;6.82;;;3.22;;
55915;SDS011;41826;53.246;-6.670;2023-02-28T17:04:04;7.53;;;3.65;;
55915;SDS011;41826;53.246;-6.670;2023-02-28T17:06:29;3.42;;;1.70;;
55915;SDS011;41826;53.246;-6.670;2023-02-28T17:08:56;5.80;;;2.40;;
55915;SDS011;41826;53.246;-6.670;2023-02-28T17:11:24;7.00;;;2.33;;
55915;SDS011;41826;53.246;-6.670;2023-02-28T17:13:50;4.95;;;2.30;;
55915;SDS011;41826;53.246;-6.670;2023-02-28T17:16:29;4.15;;;2.50;;
55915;SDS011;41826;53.246;-6.670;2023-02-28T17:18:58;4.68;;;1.88;;
55915;SDS011;41826;53.246;-6.670;2023-02-28T17:21:25;2.45;;;2.17;;
55915;SDS011;41826;53.246;-6.670;2023-02-28T17:23:51;6.47;;;3.33;;
55915;SDS011;41826;53.246;-6.670;2023-02-28T17:26:18;3.10;;;2.08;;
55915;SDS011;41826;53.246;-6.670;2023-02-28T17:28:45;6.38;;;2.60;;
55915;SDS011;41826;53.246;-6.670;2023-02-28T17:31:11;3.78;;;2.60;;
55915;SDS011;41826;53.246;-6.670;2023-02-28T17:33:37;3.97;;;2.50;;
55915;SDS011;41826;53.246;-6.670;2023-02-28T17:36:02;6.95;;;2.88;;
55915;SDS011;41826;53.246;-6.670;2023-02-28T17:38:28;5.45;;;3.08;;
55915;SDS011;41826;53.246;-6.670;2023-02-28T17:40:53;5.78;;;3.55;;
55915;SDS011;41826;53.246;-6.670;2023-02-28T17:43:22;5.85;;;3.00;;
55915;SDS011;41826;53.246;-6.670;2023-02-28T17:45:51;7.18;;;4.05;;